Time;durP1;ratioP1;P1;durP2;ratioP2;P2;SDS_P1;SDS_P2;PMS_P1;PMS_P2;Temp;Humidity;BMP_temperature;BMP_pressure;BME280_temperature;BME280_humidity;BME280_pressure;Samples;Min_cycle;Max_cycle;Signal;HPM_P1;HPM_P2
2020/12/31 00:02:23;;;;;;;84.00;44.25;;;-0.50;99.90;;;;;;1817628;30;20758;31
2020/12/31 00:05:28;;;;;;;91.28;45.80;;;-0.60;99.90;;;;;;1824729;30;20516;31
2020/12/31 00:08:11;;;;;;;96.97;44.53;;;-0.50;99.90;;;;;;1907902;30;21728;-94
2020/12/31 00:11:16;;;;;;;90.53;44.67;;;-0.50;99.90;;;;;;1847427;30;20508;-94
2020/12/31 00:14:16;;;;;;;99.47;48.38;;;-0.60;99.90;;;;;;1908795;29;20174;-95
2020/12/31 00:17:13;;;;;;;84.28;41.45;;;-0.60;99.90;;;;;;1881676;29;20115;-94
2020/12/31 00:20:07;;;;;;;88.25;42.60;;;-0.60;99.90;;;;;;1811916;30;20475;31
2020/12/31 00:23:09;;;;;;;65.90;32.95;;;-0.70;99.90;;;;;;1948886;30;20194;-94
2020/12/31 00:26:02;;;;;;;90.50;43.75;;;-0.60;99.90;;;;;;1837032;30;20545;-93
2020/12/31 00:29:06;;;;;;;84.30;42.72;;;-0.60;99.90;;;;;;1962798;30;20242;-94
2020/12/31 00:31:59;;;;;;;79.68;40.53;;;-0.60;99.90;;;;;;1816609;30;20531;31
2020/12/31 00:35:03;;;;;;;77.05;37.45;;;-0.60;99.90;;;;;;1904368;30;20194;-94
2020/12/31 00:37:50;;;;;;;65.75;34.10;;;-0.60;99.90;;;;;;1914570;29;20213;-93
2020/12/31 00:40:58;;;;;;;104.78;50.38;;;-0.60;99.90;;;;;;1803628;29;21751;-93
2020/12/31 00:51:26;;;;;;;121.85;53.28;;;-0.70;99.90;;;;;;1821742;30;20540;31
2020/12/31 00:54:27;;;;;;;109.40;51.10;;;-0.70;99.90;;;;;;1817918;30;20450;-90
2020/12/31 00:57:32;;;;;;;110.63;51.78;;;-0.80;99.90;;;;;;1855003;30;20537;-93
2020/12/31 01:00:40;;;;;;;111.88;52.60;;;-0.80;99.90;;;;;;1834391;30;20499;-93
2020/12/31 01:03:34;;;;;;;111.25;53.00;;;-0.80;99.90;;;;;;1843065;30;20599;-92
2020/12/31 01:06:38;;;;;;;106.00;52.33;;;-0.80;99.90;;;;;;1787014;30;20170;-95
2020/12/31 01:09:21;;;;;;;121.60;56.75;;;-0.80;99.90;;;;;;1897418;30;20522;-92
2020/12/31 01:14:56;;;;;;;106.50;53.00;;;-0.80;99.90;;;;;;1843830;30;21606;-93
2020/12/31 01:17:57;;;;;;;119.15;58.72;;;-0.80;99.90;;;;;;1900595;29;20214;-95
2020/12/31 01:20:43;;;;;;;131.32;59.67;;;-0.80;99.90;;;;;;2076670;30;20435;-94
2020/12/31 01:23:43;;;;;;;130.70;61.72;;;-0.80;99.90;;;;;;1975921;29;20184;-92
2020/12/31 01:26:33;;;;;;;134.00;63.78;;;-0.90;99.90;;;;;;1914554;29;20233;-92
2020/12/31 01:29:34;;;;;;;119.90;57.78;;;-0.80;99.90;;;;;;1835689;29;20469;-91
2020/12/31 01:32:24;;;;;;;143.50;66.85;;;-0.90;99.90;;;;;;2025127;30;20168;-91
2020/12/31 01:35:28;;;;;;;138.48;66.28;;;-0.90;99.90;;;;;;1354721;29;20402;-92
2020/12/31 01:38:38;;;;;;;136.25;65.60;;;-0.90;99.90;;;;;;1950138;29;20145;-92
2020/12/31 01:41:44;;;;;;;139.55;69.45;;;-0.90;99.90;;;;;;1831057;29;20454;31
2020/12/31 01:44:33;;;;;;;116.55;56.35;;;-0.90;99.90;;;;;;1750198;30;21660;-90
2020/12/31 01:47:41;;;;;;;140.47;64.73;;;-1.00;99.90;;;;;;1819806;30;20487;-90
2020/12/31 01:50:29;;;;;;;112.05;54.90;;;-1.00;99.90;;;;;;1910071;30;20193;-91
2020/12/31 01:53:36;;;;;;;125.72;60.58;;;-1.00;99.90;;;;;;1843783;30;20508;-92
2020/12/31 01:56:32;;;;;;;129.87;66.18;;;-1.00;99.90;;;;;;1831757;30;20425;31
2020/12/31 02:03:12;;;;;;;127.70;62.03;;;-1.10;99.90;;;;;;1814225;30;20510;31
2020/12/31 02:06:17;;;;;;;131.93;62.47;;;-1.10;99.90;;;;;;1842818;30;20501;-94
2020/12/31 02:09:10;;;;;;;127.28;62.65;;;-1.10;99.90;;;;;;1830373;30;21821;-93
2020/12/31 02:15:40;;;;;;;142.02;68.18;;;-1.20;99.90;;;;;;1783399;30;20458;-93
2020/12/31 02:18:57;;;;;;;146.50;70.47;;;-1.20;99.90;;;;;;833098;30;20400;-91
2020/12/31 02:31:43;;;;;;;144.82;70.07;;;-1.30;99.90;;;;;;775910;30;20445;-92
2020/12/31 02:34:33;;;;;;;148.70;71.90;;;-1.30;99.90;;;;;;1874871;29;20103;-93
2020/12/31 02:37:40;;;;;;;143.10;67.78;;;-1.30;99.90;;;;;;1858995;29;20518;-94
2020/12/31 02:50:32;;;;;;;140.88;67.12;;;-1.40;99.90;;;;;;1940885;29;20235;-90
2020/12/31 02:53:32;;;;;;;129.32;65.00;;;-1.40;99.90;;;;;;1961198;29;20249;-91
2020/12/31 02:56:16;;;;;;;124.62;62.60;;;-1.40;99.90;;;;;;1940678;29;20176;-91
2020/12/31 02:59:15;;;;;;;155.32;74.37;;;-1.40;99.90;;;;;;1941266;29;20175;-91
2020/12/31 03:02:00;;;;;;;137.55;64.57;;;-1.40;99.90;;;;;;1985088;29;20179;-90
2020/12/31 03:04:57;;;;;;;142.77;69.35;;;-1.40;99.90;;;;;;1924253;29;20691;-90
2020/12/31 03:07:50;;;;;;;129.30;64.35;;;-1.40;99.90;;;;;;1863514;29;20533;-91
2020/12/31 03:10:59;;;;;;;138.80;67.63;;;-1.40;99.90;;;;;;1868791;29;21579;-90
2020/12/31 03:14:10;;;;;;;141.27;66.15;;;-1.40;99.90;;;;;;1906764;29;20120;-91
2020/12/31 03:17:14;;;;;;;132.45;64.32;;;-1.50;99.90;;;;;;2001470;29;21989;-90
2020/12/31 03:19:58;;;;;;;121.13;61.28;;;-1.50;99.90;;;;;;1938927;29;20263;-91
2020/12/31 03:22:57;;;;;;;169.85;73.95;;;-1.50;99.90;;;;;;1936965;29;20206;-91
2020/12/31 03:25:41;;;;;;;163.85;76.03;;;-1.50;99.90;;;;;;1935157;29;20185;-93
2020/12/31 03:28:41;;;;;;;201.98;85.20;;;-1.50;99.90;;;;;;1981767;29;20164;-90
2020/12/31 03:31:39;;;;;;;205.30;79.97;;;-1.50;99.90;;;;;;1925478;29;20580;-94
2020/12/31 03:34:38;;;;;;;246.80;98.57;;;-1.40;99.90;;;;;;1940677;29;20216;-94
2020/12/31 03:37:27;;;;;;;182.32;82.10;;;-1.50;99.90;;;;;;1872230;29;20529;-92
2020/12/31 03:40:30;;;;;;;166.53;72.17;;;-1.50;99.90;;;;;;1935242;29;21765;-92
2020/12/31 03:43:19;;;;;;;184.65;78.45;;;-1.60;99.90;;;;;;1868089;29;20744;-92
2020/12/31 03:46:23;;;;;;;226.57;95.07;;;-1.60;99.90;;;;;;1987754;29;20180;-93
2020/12/31 03:51:43;;;;;;;146.13;68.22;;;-1.60;99.90;;;;;;1881589;29;20604;-92
2020/12/31 03:54:47;;;;;;;123.35;57.08;;;-1.60;99.90;;;;;;2005111;29;20190;-95
2020/12/31 03:57:31;;;;;;;120.55;58.22;;;-1.60;99.90;;;;;;1937297;29;21155;-93
2020/12/31 04:00:29;;;;;;;86.90;43.97;;;-1.60;99.90;;;;;;1931290;29;20193;-92
2020/12/31 04:03:29;;;;;;;122.62;59.72;;;-1.60;99.90;;;;;;2038521;29;20504;-93
2020/12/31 04:06:18;;;;;;;124.60;61.33;;;-1.60;99.90;;;;;;1858599;29;20510;-94
2020/12/31 04:09:25;;;;;;;136.30;64.57;;;-1.60;99.90;;;;;;1849485;29;20547;-95
2020/12/31 04:12:13;;;;;;;115.80;57.40;;;-1.70;99.90;;;;;;1973467;29;21185;-92
2020/12/31 04:15:11;;;;;;;126.75;62.03;;;-1.70;99.90;;;;;;1911265;29;20193;-92
2020/12/31 04:18:00;;;;;;;140.23;64.90;;;-1.60;99.90;;;;;;1844946;29;20500;-91
2020/12/31 04:21:24;;;;;;;117.62;57.47;;;-1.70;99.90;;;;;;1842323;30;20608;-92
2020/12/31 04:24:11;;;;;;;126.82;61.63;;;-1.80;99.90;;;;;;1904236;29;20201;-91
2020/12/31 04:27:16;;;;;;;113.78;57.78;;;-1.70;99.90;;;;;;2030776;29;20597;-91
2020/12/31 04:30:02;;;;;;;114.53;54.47;;;-1.70;99.90;;;;;;1909865;29;20510;-95
2020/12/31 04:33:07;;;;;;;112.37;56.63;;;-1.70;99.90;;;;;;1848698;29;20571;-95
2020/12/31 04:35:53;;;;;;;111.12;55.47;;;-1.80;99.90;;;;;;1896275;29;20472;-96
2020/12/31 04:38:57;;;;;;;114.62;56.05;;;-1.80;99.90;;;;;;1836549;29;20506;-95
2020/12/31 04:41:47;;;;;;;122.15;57.78;;;-1.80;99.90;;;;;;1842283;29;20545;31
2020/12/31 04:44:54;;;;;;;121.43;59.85;;;-1.80;99.90;;;;;;1853778;29;20613;-93
2020/12/31 04:48:22;;;;;;;127.78;60.55;;;-1.80;99.90;;;;;;1906683;30;20192;-93
2020/12/31 04:51:28;;;;;;;108.60;53.17;;;-1.80;99.90;;;;;;1849850;29;20506;-93
2020/12/31 04:54:21;;;;;;;104.28;49.33;;;-1.80;99.90;;;;;;1837538;29;20521;31
2020/12/31 04:57:27;;;;;;;108.43;52.45;;;-1.90;99.90;;;;;;1858939;29;20535;-94
2020/12/31 05:00:15;;;;;;;114.35;59.25;;;-1.80;99.90;;;;;;1944048;29;20153;-92
2020/12/31 05:03:19;;;;;;;127.55;60.00;;;-1.90;99.90;;;;;;1855855;29;20566;-94
2020/12/31 05:06:12;;;;;;;121.32;60.40;;;-1.90;99.90;;;;;;1836774;29;20464;31
2020/12/31 05:09:21;;;;;;;114.40;56.97;;;-1.90;99.90;;;;;;1922030;29;20596;-93
2020/12/31 05:14:41;;;;;;;126.38;59.42;;;-1.90;99.90;;;;;;1847835;30;20806;-94
2020/12/31 05:17:50;;;;;;;119.87;56.88;;;-1.90;99.90;;;;;;1814945;30;20472;31
2020/12/31 05:20:39;;;;;;;123.95;58.60;;;-1.90;99.90;;;;;;1817137;30;20513;31
2020/12/31 05:23:44;;;;;;;118.18;56.83;;;-1.90;99.90;;;;;;1813678;30;20438;31
2020/12/31 05:26:30;;;;;;;121.78;56.28;;;-1.90;99.90;;;;;;1883381;30;20198;-93
2020/12/31 05:29:49;;;;;;;109.00;54.42;;;-1.90;99.90;;;;;;944561;30;20435;-92
2020/12/31 05:36:26;;;;;;;96.03;46.53;;;-2.00;99.90;;;;;;1841934;29;21715;-92
2020/12/31 05:39:18;;;;;;;89.62;43.83;;;-1.90;99.90;;;;;;1849863;29;20527;-95
2020/12/31 05:42:21;;;;;;;107.55;50.58;;;-2.00;99.90;;;;;;2028331;30;20192;-95
2020/12/31 05:48:27;;;;;;;104.53;49.20;;;-2.00;99.90;;;;;;3138091;29;20142;-93
2020/12/31 05:51:30;;;;;;;113.68;50.47;;;-2.00;99.90;;;;;;1974086;30;20464;-92
2020/12/31 05:54:14;;;;;;;119.03;55.42;;;-2.00;99.90;;;;;;1906615;30;20197;-91
2020/12/31 05:57:18;;;;;;;112.82;52.60;;;-2.00;99.90;;;;;;1953287;30;20174;-90
2020/12/31 06:00:04;;;;;;;124.12;58.08;;;-2.10;99.90;;;;;;1984218;30;20424;-90
2020/12/31 06:03:05;;;;;;;89.55;47.38;;;-2.10;99.90;;;;;;1943601;30;20268;-90
2020/12/31 06:05:57;;;;;;;87.88;42.42;;;-2.10;99.90;;;;;;1888643;30;20406;-95
2020/12/31 06:09:04;;;;;;;108.37;53.90;;;-2.10;99.90;;;;;;1810629;30;20464;31
2020/12/31 06:12:07;;;;;;;112.80;54.53;;;-2.10;99.90;;;;;;1863202;30;21817;-94
2020/12/31 06:15:12;;;;;;;125.38;62.78;;;-2.10;99.90;;;;;;1814570;30;21919;-96
2020/12/31 06:18:06;;;;;;;121.60;60.03;;;-2.10;99.90;;;;;;1855198;30;20151;-94
2020/12/31 06:23:46;;;;;;;122.32;55.45;;;-2.10;99.90;;;;;;1822147;30;20454;31
2020/12/31 06:26:57;;;;;;;111.30;55.95;;;-2.10;99.90;;;;;;1852032;29;20516;-92
2020/12/31 06:30:00;;;;;;;95.22;44.70;;;-2.20;99.90;;;;;;1904890;30;20653;-93
2020/12/31 06:32:52;;;;;;;102.40;49.23;;;-2.20;99.90;;;;;;1836841;30;20540;-92
2020/12/31 06:36:09;;;;;;;103.93;48.80;;;-2.20;99.90;;;;;;1859844;30;21851;-93
2020/12/31 06:38:52;;;;;;;107.60;54.45;;;-2.20;99.90;;;;;;1873005;30;20129;-91
2020/12/31 06:42:02;;;;;;;105.63;53.25;;;-2.20;99.90;;;;;;1833083;30;20538;-93
2020/12/31 06:44:58;;;;;;;98.93;51.13;;;-2.10;99.90;;;;;;1892184;30;20187;-92
2020/12/31 06:48:29;;;;;;;93.47;47.05;;;-2.10;99.90;;;;;;2322993;30;20162;31
2020/12/31 06:51:25;;;;;;;107.10;53.53;;;-2.10;99.90;;;;;;2202306;30;22483;-90
2020/12/31 06:54:36;;;;;;;94.05;48.65;;;-2.10;99.90;;;;;;779681;29;20402;-89
2020/12/31 06:57:38;;;;;;;63.50;33.08;;;-2.10;99.90;;;;;;1858269;29;20535;-90
2020/12/31 07:00:44;;;;;;;72.87;37.50;;;-2.00;99.90;;;;;;1834685;29;20471;31
2020/12/31 07:07:20;;;;;;;85.18;43.20;;;-2.00;99.90;;;;;;1008251;30;21878;-89
2020/12/31 07:10:07;;;;;;;97.62;47.30;;;-2.00;99.90;;;;;;1807661;30;20465;-89
2020/12/31 07:21:40;;;;;;;93.62;42.92;;;-1.90;99.90;;;;;;1942770;30;20167;-91
2020/12/31 07:28:25;;;;;;;71.82;37.55;;;-1.90;99.90;;;;;;1931231;30;20186;-91
2020/12/31 07:31:40;;;;;;;90.53;45.50;;;-1.90;99.90;;;;;;1873788;30;20138;-90
2020/12/31 07:34:32;;;;;;;89.90;44.92;;;-1.90;99.90;;;;;;1825483;29;20431;31
2020/12/31 07:37:37;;;;;;;86.05;45.58;;;-1.90;99.90;;;;;;1848395;29;20596;-92
2020/12/31 07:40:42;;;;;;;87.35;45.92;;;-1.90;99.90;;;;;;1845118;29;21343;-91
2020/12/31 07:44:08;;;;;;;88.22;44.08;;;-1.80;99.90;;;;;;961024;30;21955;-93
2020/12/31 07:50:43;;;;;;;86.45;45.28;;;-1.20;99.90;;;;;;1846469;29;20539;-89
2020/12/31 07:53:35;;;;;;;83.60;43.90;;;-0.80;99.90;;;;;;1852723;29;20767;-89
2020/12/31 07:56:37;;;;;;;81.95;42.10;;;-0.30;99.90;;;;;;1810382;30;20186;-89
2020/12/31 07:59:39;;;;;;;93.30;45.35;;;0.30;99.90;;;;;;1893633;30;20231;-88
2020/12/31 08:02:36;;;;;;;91.57;45.25;;;1.00;99.90;;;;;;1895782;30;20191;-89
2020/12/31 08:05:36;;;;;;;92.00;44.70;;;1.50;99.90;;;;;;1815843;30;20517;-87
2020/12/31 08:08:25;;;;;;;103.50;55.35;;;2.10;99.90;;;;;;951105;30;21894;-88
2020/12/31 08:11:23;;;;;;;113.85;60.58;;;2.60;99.90;;;;;;718632;30;20444;-90
2020/12/31 08:25:10;;;;;;;135.02;67.15;;;3.00;99.90;;;;;;1280191;30;20450;-88
2020/12/31 08:28:16;;;;;;;166.65;86.70;;;3.50;99.90;;;;;;1493142;30;20423;-88
2020/12/31 08:31:23;;;;;;;202.05;103.32;;;3.90;99.90;;;;;;1185016;30;22061;-88
2020/12/31 08:34:15;;;;;;;195.02;100.43;;;4.60;99.90;;;;;;1860033;29;20498;-89
2020/12/31 08:37:22;;;;;;;179.77;97.00;;;4.90;99.90;;;;;;1857710;29;20602;-88
2020/12/31 08:40:21;;;;;;;170.35;91.70;;;5.30;99.90;;;;;;1844004;29;20501;31
2020/12/31 08:43:25;;;;;;;139.35;78.32;;;5.60;99.90;;;;;;1843866;29;20514;-89
2020/12/31 08:46:21;;;;;;;114.95;63.00;;;5.70;99.90;;;;;;1845380;29;20486;-88
2020/12/31 08:49:28;;;;;;;126.38;74.10;;;5.90;99.90;;;;;;1847327;29;21170;-90
2020/12/31 08:52:23;;;;;;;121.13;74.03;;;6.00;99.90;;;;;;1848500;29;20600;-88
2020/12/31 08:58:44;;;;;;;101.03;59.67;;;6.30;99.90;;;;;;3120526;29;20190;-88
2020/12/31 09:01:48;;;;;;;106.05;58.10;;;6.60;99.90;;;;;;1316200;29;20405;-88
2020/12/31 09:04:37;;;;;;;116.80;63.67;;;6.60;99.90;;;;;;1171948;29;21823;-88
2020/12/31 09:15:24;;;;;;;104.95;57.80;;;7.20;99.90;;;;;;1976683;29;20414;-91
2020/12/31 09:20:59;;;;;;;68.35;39.97;;;7.50;99.90;;;;;;753825;29;20413;-91
2020/12/31 09:24:43;;;;;;;52.90;33.92;;;7.40;99.90;;;;;;2601625;29;20840;31
2020/12/31 09:27:34;;;;;;;63.15;37.53;;;7.60;99.90;;;;;;1871968;29;20511;-92
2020/12/31 09:30:36;;;;;;;70.43;38.90;;;7.80;99.90;;;;;;2034481;29;20435;-91
2020/12/31 09:35:57;;;;;;;69.97;41.08;;;8.00;99.90;;;;;;2105804;29;20438;-92
2020/12/31 09:38:57;;;;;;;62.80;37.30;;;8.00;99.90;;;;;;1985218;29;20148;-93
2020/12/31 09:41:48;;;;;;;283.30;129.73;;;8.10;99.90;;;;;;1456558;29;21943;-90
2020/12/31 09:44:53;;;;;;;;;;;8.10;99.90;;;;;;1878465;29;20505;-91
2020/12/31 09:47:45;;;;;;;62.25;38.78;;;7.90;99.90;;;;;;1877236;29;20450;-92
2020/12/31 09:50:47;;;;;;;;;;;7.90;99.90;;;;;;1932717;29;20181;-92
2020/12/31 11:43:13;;;;;;;19.00;10.88;;;6.40;99.90;;;;;;4853265;29;20342;31
2020/12/31 13:26:12;;;;;;;77.60;40.97;;;5.40;99.90;;;;;;708477;29;20378;-87
2020/12/31 14:13:58;;;;;;;47.33;26.23;;;4.90;99.90;;;;;;2904608;29;22233;31
2020/12/31 14:22:28;;;;;;;73.68;32.40;;;4.70;99.90;;;;;;2996779;29;21843;31
2020/12/31 15:21:11;;;;;;;47.50;25.88;;;3.60;99.90;;;;;;3416537;29;20449;31
2020/12/31 17:42:13;;;;;;;104.93;58.00;;;0.80;99.90;;;;;;967880;29;20467;-89
2020/12/31 17:45:25;;;;;;;;;;;;;;;;;;;;;
2020/12/31 17:48:51;;;;;;;134.23;68.50;;;0.80;99.90;;;;;;698921;29;21852;-92
2020/12/31 18:11:27;;;;;;;118.75;55.80;;;0.40;99.90;;;;;;672879;29;21652;31
2020/12/31 18:18:22;;;;;;;106.55;54.03;;;0.30;99.90;;;;;;670525;29;21885;-89
2020/12/31 18:53:51;;;;;;;86.72;42.88;;;-0.10;99.90;;;;;;1207527;29;20374;-90
2020/12/31 19:11:50;;;;;;;82.45;39.70;;;-0.40;99.90;;;;;;660361;29;21791;-89
2020/12/31 19:29:33;;;;;;;99.93;48.20;;;-0.60;99.90;;;;;;789827;29;21855;-90
2020/12/31 19:50:15;;;;;;;97.72;46.03;;;-0.90;99.90;;;;;;1929310;29;20180;-89
2020/12/31 19:56:45;;;;;;;179.77;44.17;;;-1.10;99.90;;;;;;1929644;29;20192;-88
2020/12/31 19:59:48;;;;;;;114.10;41.35;;;-1.20;99.90;;;;;;1952272;29;20909;-88
2020/12/31 20:05:27;;;;;;;119.28;40.15;;;-1.30;99.90;;;;;;1858076;29;20659;-88
2020/12/31 20:08:39;;;;;;;124.47;39.95;;;-1.50;99.90;;;;;;1903396;30;20185;-88
2020/12/31 20:11:31;;;;;;;186.20;46.30;;;-1.50;99.90;;;;;;1839751;29;20598;-89
2020/12/31 20:14:39;;;;;;;199.00;46.88;;;-1.50;99.90;;;;;;1859414;29;20502;-88
2020/12/31 20:17:31;;;;;;;176.35;49.15;;;-1.60;99.90;;;;;;1852816;29;20516;-88
2020/12/31 20:20:41;;;;;;;165.50;52.62;;;-1.70;99.90;;;;;;1864289;29;21787;-88
2020/12/31 20:23:35;;;;;;;203.13;51.80;;;-1.80;99.90;;;;;;1896112;29;20660;-89
2020/12/31 20:26:53;;;;;;;149.68;50.85;;;-1.90;99.90;;;;;;1702683;29;20478;-91
2020/12/31 20:29:39;;;;;;;144.57;51.67;;;-1.90;99.90;;;;;;1975739;29;20164;-89
2020/12/31 20:32:42;;;;;;;166.77;55.08;;;-1.90;99.90;;;;;;1863147;29;20521;-89
2020/12/31 20:35:36;;;;;;;150.90;54.20;;;-1.90;99.90;;;;;;1871535;29;20391;31
2020/12/31 20:38:40;;;;;;;146.50;50.33;;;-1.90;99.90;;;;;;1857230;29;20528;-88
2020/12/31 20:41:35;;;;;;;130.00;48.28;;;-1.90;99.90;;;;;;1905376;30;20260;-90
2020/12/31 20:44:36;;;;;;;118.35;44.70;;;-1.90;99.90;;;;;;2042783;29;20435;-91
2020/12/31 20:47:19;;;;;;;120.30;42.38;;;-1.90;99.90;;;;;;1929550;29;20157;-90
2020/12/31 20:50:37;;;;;;;148.93;51.95;;;-1.90;99.90;;;;;;1843474;30;21125;-91
2020/12/31 20:53:46;;;;;;;116.03;37.42;;;-1.90;99.90;;;;;;1842280;30;20546;-90
2020/12/31 20:56:32;;;;;;;142.37;41.45;;;-1.90;99.90;;;;;;1895282;30;20135;-89
2020/12/31 20:59:40;;;;;;;134.45;40.88;;;-1.90;99.90;;;;;;1839237;29;20517;-88
2020/12/31 21:02:32;;;;;;;131.25;45.08;;;-1.90;99.90;;;;;;1833882;29;21850;-93
2020/12/31 21:09:16;;;;;;;144.50;41.85;;;-1.90;99.90;;;;;;842418;29;20422;-90
2020/12/31 21:29:06;;;;;;;115.72;33.00;;;-2.00;99.90;;;;;;1872296;29;20517;-89
2020/12/31 21:32:00;;;;;;;153.20;39.35;;;-1.90;99.90;;;;;;1826772;29;21696;-89
2020/12/31 21:35:06;;;;;;;134.55;38.95;;;-2.00;99.90;;;;;;1863754;29;20551;-89
2020/12/31 21:38:00;;;;;;;147.75;39.47;;;-2.00;99.90;;;;;;1863559;29;21797;-89
2020/12/31 21:41:00;;;;;;;;;;;-2.00;99.90;;;;;;1925346;29;20177;-88
2020/12/31 21:43:50;;;;;;;137.27;34.45;;;-2.00;99.90;;;;;;1977318;29;20045;-89
2020/12/31 21:46:51;;;;;;;180.18;35.60;;;-1.90;99.90;;;;;;1982862;29;20166;-89
2020/12/31 21:52:11;;;;;;;161.52;40.72;;;-2.00;99.90;;;;;;1829407;30;22439;31
2020/12/31 21:55:30;;;;;;;136.75;36.65;;;-2.00;99.90;;;;;;907477;29;20407;-88
2020/12/31 22:01:59;;;;;;;158.65;35.83;;;-2.00;99.90;;;;;;658063;29;21882;-91
2020/12/31 22:37:00;;;;;;;149.02;35.85;;;-2.00;99.90;;;;;;723743;29;21904;-91
2020/12/31 22:40:00;;;;;;;129.32;35.55;;;-2.00;99.90;;;;;;660217;29;21897;-90
2020/12/31 23:01:01;;;;;;;123.87;37.85;;;-1.90;99.90;;;;;;1921129;29;20133;-89
2020/12/31 23:07:17;;;;;;;273.83;108.57;;;-1.90;99.90;;;;;;1898244;29;20546;-88
2020/12/31 23:10:26;;;;;;;202.02;51.60;;;-1.90;99.90;;;;;;1465998;29;21792;-88
2020/12/31 23:13:48;;;;;;;173.32;50.83;;;-1.90;99.90;;;;;;1066765;29;20396;-88
2020/12/31 23:16:48;;;;;;;153.93;43.63;;;-1.90;99.90;;;;;;1946445;29;20339;-89
2020/12/31 23:19:48;;;;;;;181.50;46.35;;;-1.90;99.90;;;;;;1881865;29;20513;-88
2020/12/31 23:26:34;;;;;;;145.23;50.67;;;-1.90;99.90;;;;;;1904506;29;20439;-88
2020/12/31 23:29:21;;;;;;;164.00;59.85;;;-1.90;99.90;;;;;;1936115;29;20541;-89
2020/12/31 23:32:47;;;;;;;181.82;64.37;;;-1.80;99.90;;;;;;1540864;29;20429;-90
2020/12/31 23:35:37;;;;;;;220.52;65.28;;;-1.80;99.90;;;;;;1893221;29;20383;-88
2020/12/31 23:38:39;;;;;;;202.25;60.78;;;-1.80;99.90;;;;;;1921719;29;20184;-88
2020/12/31 23:41:29;;;;;;;156.25;53.00;;;-1.80;99.90;;;;;;1850165;29;20474;31
2020/12/31 23:44:32;;;;;;;182.80;49.60;;;-1.80;99.90;;;;;;1835396;29;20749;31
2020/12/31 23:47:21;;;;;;;141.70;46.95;;;-1.80;99.90;;;;;;1844737;29;22119;-89
2020/12/31 23:50:28;;;;;;;140.43;47.93;;;-1.80;99.90;;;;;;1872613;29;20569;-89
2020/12/31 23:53:13;;;;;;;139.73;45.22;;;-1.80;99.90;;;;;;2044731;29;20715;-89
2020/12/31 23:56:10;;;;;;;154.70;50.30;;;-1.70;99.90;;;;;;1921173;29;20524;-89
2020/12/31 23:58:55;;;;;;;195.50;54.15;;;-1.70;99.90;;;;;;1930716;29;20189;-89
